createdAt,value
2018-04-12T00:00:20.223Z,76.58
2018-04-12T00:02:47.716Z,76.58
2018-04-12T00:05:15.289Z,76.64
2018-04-12T00:07:43.459Z,76.68
2018-04-12T00:10:12.017Z,76.68
2018-04-12T00:12:40.228Z,76.63
2018-04-12T00:15:08.541Z,76.72
2018-04-12T00:17:37.747Z,76.71
2018-04-12T00:20:05.282Z,76.75
2018-04-12T00:22:32.778Z,76.77
2018-04-12T00:25:00.356Z,76.86
2018-04-12T00:27:31.990Z,76.94
2018-04-12T00:30:01.031Z,76.94
2018-04-12T00:32:29.198Z,76.99
2018-04-12T00:34:57.793Z,77.04
2018-04-12T00:37:25.337Z,77.14
2018-04-12T00:39:52.846Z,77.20
2018-04-12T00:42:21.250Z,77.23
2018-04-12T00:44:49.589Z,77.31
2018-04-12T00:47:18.783Z,77.41
2018-04-12T00:49:48.876Z,77.48
2018-04-12T00:52:16.363Z,77.58
2018-04-12T00:54:43.966Z,77.69
2018-04-12T00:57:11.459Z,77.75
2018-04-12T00:59:38.955Z,77.80
2018-04-12T01:02:12.364Z,77.82
2018-04-12T01:04:40.505Z,77.95
2018-04-12T01:07:11.887Z,78.05
2018-04-12T01:09:39.500Z,78.11
2018-04-12T01:12:07.013Z,78.19
2018-04-12T01:14:34.514Z,78.22
2018-04-12T01:17:02.024Z,78.24
2018-04-12T01:19:29.524Z,78.23
2018-04-12T01:21:57.088Z,78.22
2018-04-12T01:24:24.622Z,78.27
2018-04-12T01:26:52.298Z,78.38
2018-04-12T01:29:19.810Z,78.50
2018-04-12T01:31:47.290Z,78.57
2018-04-12T01:34:14.798Z,78.64
2018-04-12T01:36:42.731Z,78.67
2018-04-12T01:39:11.815Z,78.68
2018-04-12T01:41:39.567Z,78.71
2018-04-12T01:44:07.739Z,78.68
2018-04-12T01:46:35.269Z,78.65
2018-04-12T01:49:02.772Z,78.64
2018-04-12T01:51:30.278Z,78.64
2018-04-12T01:53:57.783Z,78.62
2018-04-12T01:56:25.300Z,78.66
2018-04-12T01:58:52.903Z,78.66
2018-04-12T02:01:20.436Z,78.68
2018-04-12T02:03:47.924Z,78.71
2018-04-12T02:06:15.442Z,78.71
2018-04-12T02:08:42.951Z,78.76
2018-04-12T02:11:10.470Z,78.83
2018-04-12T02:13:38.024Z,78.89
2018-04-12T02:16:06.216Z,78.91
2018-04-12T02:18:33.951Z,78.92
2018-04-12T02:21:02.168Z,78.93
2018-04-12T02:23:29.676Z,78.94
2018-04-12T02:25:57.158Z,78.98
2018-04-12T02:28:24.718Z,78.98
2018-04-12T02:30:52.272Z,78.98
2018-04-12T02:33:20.042Z,78.97
2018-04-12T02:35:48.202Z,78.94
2018-04-12T02:38:15.706Z,78.96
2018-04-12T02:40:43.233Z,78.99
2018-04-12T02:43:10.714Z,79.03
2018-04-12T02:45:38.216Z,79.09
2018-04-12T02:48:05.747Z,79.13
2018-04-12T02:50:35.209Z,79.17
2018-04-12T02:53:03.774Z,79.19
2018-04-12T02:55:31.254Z,79.23
2018-04-12T02:57:58.782Z,79.29
2018-04-12T03:00:26.301Z,79.33
2018-04-12T03:02:53.799Z,79.35
2018-04-12T03:05:21.317Z,79.37
2018-04-12T03:07:49.754Z,79.39
2018-04-12T03:10:17.328Z,79.40
2018-04-12T03:12:44.881Z,79.43
2018-04-12T03:15:12.392Z,79.42
2018-04-12T03:17:39.883Z,79.45
2018-04-12T03:20:07.382Z,79.51
2018-04-12T03:22:35.290Z,79.50
2018-04-12T03:25:03.712Z,79.52
2018-04-12T03:27:31.739Z,79.47
2018-04-12T03:29:59.248Z,79.68
2018-04-12T03:32:27.251Z,79.91
2018-04-12T03:34:54.730Z,79.95
2018-04-12T03:40:15.263Z,79.94
2018-04-12T03:42:43.310Z,79.88
2018-04-12T03:45:12.087Z,79.81
2018-04-12T03:47:39.606Z,79.78
2018-04-12T03:50:07.102Z,79.75
2018-04-12T03:52:34.606Z,79.72
2018-04-12T03:55:02.109Z,79.77
2018-04-12T03:57:29.878Z,79.80
2018-04-12T03:59:57.489Z,79.93
2018-04-12T04:02:25.035Z,79.97
2018-04-12T04:04:52.514Z,80.07
2018-04-12T04:07:20.042Z,80.05
2018-04-12T04:09:47.552Z,79.97
2018-04-12T04:12:15.026Z,79.85
2018-04-12T04:14:48.405Z,79.87
2018-04-12T04:17:28.811Z,80.03
2018-04-12T04:20:07.969Z,80.23
2018-04-12T04:22:35.450Z,80.28
2018-04-12T04:25:02.955Z,80.27
2018-04-12T04:27:30.462Z,80.22
2018-04-12T04:29:57.984Z,80.21
2018-04-12T04:32:25.500Z,80.26
2018-04-12T04:34:53.106Z,80.28
2018-04-12T04:37:23.732Z,80.31
2018-04-12T04:39:51.266Z,80.29
2018-04-12T04:42:19.618Z,80.27
2018-04-12T04:44:47.118Z,80.37
2018-04-12T04:47:14.613Z,80.43
2018-04-12T04:49:42.362Z,80.40
2018-04-12T04:52:11.307Z,80.40
2018-04-12T04:54:39.667Z,80.39
2018-04-12T04:57:07.170Z,80.54
2018-04-12T04:59:34.678Z,80.66
2018-04-12T05:02:02.203Z,80.66
2018-04-12T05:04:29.706Z,80.63
2018-04-12T05:06:57.226Z,80.56
2018-04-12T05:09:24.739Z,80.51
2018-04-12T05:11:53.175Z,80.60
2018-04-12T05:14:20.689Z,80.65
2018-04-12T05:16:48.178Z,80.75
2018-04-12T05:19:15.714Z,80.82
2018-04-12T05:21:43.215Z,80.80
2018-04-12T05:24:11.641Z,80.87
2018-04-12T05:26:39.762Z,80.83
2018-04-12T05:29:08.170Z,80.84
2018-04-12T05:31:35.667Z,80.86
2018-04-12T05:34:03.158Z,80.84
2018-04-12T05:36:30.665Z,80.87
2018-04-12T05:38:58.180Z,80.94
2018-04-12T05:41:25.720Z,80.94
2018-04-12T05:43:53.295Z,80.97
2018-04-12T05:46:20.817Z,80.97
2018-04-12T05:48:48.337Z,80.98
2018-04-12T05:51:15.845Z,80.99
2018-04-12T05:53:43.333Z,81.00
2018-04-12T05:56:10.826Z,81.04
2018-04-12T05:58:41.458Z,81.05
2018-04-12T06:01:11.187Z,81.04
2018-04-12T06:03:39.865Z,81.09
2018-04-12T06:06:07.827Z,81.15
2018-04-12T06:08:35.749Z,81.21
2018-04-12T06:11:03.242Z,81.26
2018-04-12T06:13:30.782Z,81.31
2018-04-12T06:16:00.320Z,81.34
2018-04-12T06:18:28.858Z,81.37
2018-04-12T06:20:56.809Z,81.42
2018-04-12T06:23:24.318Z,81.51
2018-04-12T06:25:52.220Z,81.56
2018-04-12T06:28:19.753Z,81.64
2018-04-12T06:30:47.266Z,81.67
2018-04-12T06:33:15.210Z,81.75
2018-04-12T06:35:43.618Z,81.83
2018-04-12T06:38:12.426Z,81.94
2018-04-12T06:40:39.926Z,82.04
2018-04-12T06:43:07.446Z,82.16
2018-04-12T06:45:34.924Z,82.30
2018-04-12T06:48:03.289Z,82.42
2018-04-12T06:50:31.794Z,82.52
2018-04-12T06:53:00.014Z,82.60
2018-04-12T06:55:28.407Z,82.68
2018-04-12T06:57:56.898Z,82.77
2018-04-12T07:00:24.393Z,82.90
2018-04-12T07:02:51.884Z,83.00
2018-04-12T07:05:19.396Z,83.07
2018-04-12T07:07:47.775Z,83.13
2018-04-12T07:10:15.342Z,83.22
2018-04-12T07:12:43.757Z,83.31
2018-04-12T07:15:11.261Z,83.41
2018-04-12T08:01:20.910Z,83.37
2018-04-12T08:03:51.302Z,83.24
2018-04-12T08:06:36.978Z,83.14
2018-04-12T08:09:04.728Z,82.67
2018-04-12T08:11:32.425Z,82.34
2018-04-12T08:14:00.187Z,82.17
2018-04-12T08:25:43.879Z,80.46
2018-04-12T08:28:11.543Z,80.08
2018-04-12T08:30:39.224Z,80.18
2018-04-12T08:33:07.728Z,79.42
2018-04-12T08:44:43.698Z,78.77
2018-04-12T08:47:11.283Z,78.39
2018-04-12T08:49:38.956Z,77.95
2018-04-12T09:01:14.782Z,76.38
2018-04-12T09:03:42.412Z,76.33
2018-04-12T09:06:09.985Z,76.18
2018-04-12T09:17:46.521Z,74.57
2018-04-12T09:20:14.269Z,74.58
2018-04-12T09:22:41.836Z,74.53
2018-04-12T09:31:19.521Z,73.90
2018-04-12T09:33:56.819Z,73.93
2018-04-12T09:36:24.411Z,73.82
2018-04-12T09:38:52.065Z,73.79
2018-04-12T09:41:20.496Z,73.56
2018-04-12T09:46:39.678Z,73.79
2018-04-12T09:49:11.978Z,73.59
2018-04-12T09:51:39.560Z,73.44
2018-04-12T09:54:07.215Z,73.21
2018-04-12T09:56:34.774Z,73.09
2018-04-12T09:59:03.292Z,72.46
2018-04-12T10:10:07.225Z,72.87
2018-04-12T10:12:37.409Z,72.91
2018-04-12T10:15:05.012Z,72.81
2018-04-12T10:26:41.168Z,71.40
2018-04-12T10:29:08.892Z,71.38
2018-04-12T10:31:36.923Z,71.38
2018-04-12T10:43:09.280Z,70.71
2018-04-12T10:45:36.965Z,70.84
2018-04-12T10:48:04.644Z,70.76
2018-04-12T10:59:44.857Z,69.73
2018-04-12T11:02:12.672Z,69.25
2018-04-12T11:04:40.345Z,68.76
2018-04-12T11:07:08.337Z,68.60
2018-04-12T11:18:44.980Z,67.03
2018-04-12T11:21:12.642Z,66.99
2018-04-12T11:23:40.917Z,67.31
2018-04-12T11:35:17.434Z,65.87
2018-04-12T11:37:44.975Z,65.51
2018-04-12T11:40:12.653Z,65.63
2018-04-12T11:51:48.651Z,64.21
2018-04-12T11:54:16.214Z,63.80
2018-04-12T11:56:43.817Z,63.19
2018-04-12T12:08:20.264Z,61.20
2018-04-12T12:10:48.863Z,61.28
2018-04-12T12:13:30.085Z,61.47
2018-04-12T12:25:07.568Z,59.96
2018-04-12T12:42:57.900Z,58.13
2018-04-12T12:45:27.403Z,57.81
2018-04-12T12:47:57.157Z,56.93
2018-04-12T12:59:34.132Z,56.05
2018-04-12T13:02:01.747Z,55.57
2018-04-12T13:04:29.323Z,55.00
2018-04-12T13:16:13.036Z,54.99
2018-04-12T13:18:40.612Z,55.42
2018-04-12T13:21:08.200Z,55.61
2018-04-12T13:23:35.778Z,55.55
2018-04-12T13:26:07.552Z,55.40
2018-04-12T13:38:31.166Z,55.58
2018-04-12T13:53:10.564Z,54.71
2018-04-12T13:55:38.177Z,54.60
2018-04-12T14:10:24.595Z,54.89
2018-04-12T14:13:05.281Z,55.00
2018-04-12T14:22:00.260Z,55.22
2018-04-12T14:24:29.059Z,55.62
2018-04-12T14:26:56.593Z,56.28
2018-04-12T14:29:25.337Z,56.71
2018-04-12T14:31:52.914Z,56.97
2018-04-12T14:43:29.238Z,55.76
2018-04-12T14:45:57.863Z,55.77
2018-04-12T14:48:25.579Z,55.86
2018-04-12T15:00:02.117Z,54.68
2018-04-12T15:02:29.778Z,54.24
2018-04-12T15:04:57.409Z,54.03
2018-04-12T15:13:32.245Z,53.59
2018-04-12T15:16:00.931Z,52.96
2018-04-12T15:18:28.514Z,52.71
2018-04-12T15:20:56.200Z,52.52
2018-04-12T15:23:23.774Z,52.31
2018-04-12T15:35:02.982Z,51.68
2018-04-12T15:37:32.244Z,51.79
2018-04-12T15:40:03.726Z,51.66
2018-04-12T15:51:40.101Z,50.40
2018-04-12T15:54:07.945Z,49.81
2018-04-12T15:56:35.950Z,49.86
2018-04-12T16:08:15.212Z,48.97
2018-04-12T16:10:43.081Z,48.44
2018-04-12T16:13:10.780Z,48.24
2018-04-12T16:24:46.588Z,47.23
2018-04-12T16:27:14.240Z,46.94
2018-04-12T16:29:42.026Z,46.37
2018-04-12T16:41:28.800Z,45.30
2018-04-12T16:44:05.642Z,46.07
2018-04-12T16:46:33.716Z,46.95
2018-04-12T17:01:20.540Z,47.84
2018-04-12T17:22:13.483Z,45.38
2018-04-12T17:33:49.861Z,44.91
2018-04-12T17:36:17.409Z,45.22
2018-04-12T17:38:44.993Z,45.60
2018-04-12T17:41:12.652Z,45.89
2018-04-12T17:43:43.752Z,46.25
2018-04-12T17:46:13.259Z,46.32
2018-04-12T17:48:41.161Z,46.49
2018-04-12T17:51:08.756Z,47.09
2018-04-12T17:53:36.322Z,47.72
2018-04-12T17:56:03.949Z,48.28
2018-04-12T17:58:32.797Z,48.79
2018-04-12T18:01:04.813Z,49.49
2018-04-12T18:03:36.404Z,50.15
2018-04-12T18:06:05.045Z,50.82
2018-04-12T18:08:32.575Z,51.37
2018-04-12T18:11:00.220Z,52.04
2018-04-12T18:13:27.855Z,52.47
2018-04-12T18:28:17.452Z,54.89
2018-04-12T18:30:54.155Z,55.12
2018-04-12T19:21:55.397Z,62.47
2018-04-12T19:33:31.746Z,64.07
2018-04-12T19:35:59.488Z,64.50
2018-04-12T19:38:27.619Z,64.86
2018-04-12T19:50:04.195Z,65.63
2018-04-12T19:52:31.769Z,65.75
2018-04-12T19:54:59.394Z,66.08
2018-04-12T20:06:35.513Z,66.94
2018-04-12T20:09:03.113Z,67.14
2018-04-12T20:11:30.743Z,67.18
2018-04-12T20:13:58.307Z,67.37
2018-04-12T20:25:34.763Z,67.92
2018-04-12T20:28:02.351Z,68.10
2018-04-12T20:30:29.901Z,68.21
2018-04-12T20:42:06.109Z,68.65
2018-04-12T20:44:33.785Z,68.73
2018-04-12T20:47:01.331Z,68.83
2018-04-12T20:58:37.920Z,69.06
2018-04-12T21:01:05.684Z,69.13
2018-04-12T21:03:33.312Z,69.18
2018-04-12T21:14:46.789Z,69.43
2018-04-12T21:17:14.311Z,69.50
2018-04-12T21:19:41.943Z,69.55
2018-04-12T21:22:09.584Z,69.57
2018-04-12T21:32:19.235Z,69.76
2018-04-12T21:34:46.782Z,69.75
2018-04-12T21:37:14.440Z,69.74
2018-04-12T21:39:42.907Z,69.86
2018-04-12T21:49:52.088Z,70.00
2018-04-12T21:52:19.659Z,70.01
2018-04-12T21:54:47.215Z,70.06
2018-04-12T21:57:15.434Z,70.16
2018-04-12T22:02:29.715Z,70.46
2018-04-12T22:07:59.662Z,70.67
2018-04-12T22:10:27.245Z,70.77
2018-04-12T22:12:54.809Z,70.91
2018-04-12T22:24:31.207Z,71.00
2018-04-12T22:26:58.778Z,71.10
2018-04-12T22:29:26.288Z,71.26
2018-04-12T22:31:53.907Z,71.40
2018-04-12T22:34:21.514Z,71.44
2018-04-12T22:36:49.107Z,71.45
2018-04-12T22:39:16.732Z,71.53
2018-04-12T22:41:44.348Z,71.59
2018-04-12T22:44:11.890Z,71.60
2018-04-12T22:46:39.415Z,71.62
2018-04-12T22:49:06.975Z,71.69
2018-04-12T22:51:34.573Z,71.67
2018-04-12T22:54:02.248Z,71.74
2018-04-12T22:56:29.836Z,71.77
2018-04-12T22:58:57.359Z,71.83
2018-04-12T23:01:24.919Z,71.86
2018-04-12T23:03:52.559Z,71.92
2018-04-12T23:06:20.279Z,71.98
2018-04-12T23:08:47.969Z,72.00
2018-04-12T23:11:15.875Z,72.07
2018-04-12T23:13:43.909Z,72.14
2018-04-12T23:16:11.440Z,72.14
2018-04-12T23:18:39.031Z,72.18
2018-04-12T23:21:06.585Z,72.22
2018-04-12T23:23:34.177Z,72.37
2018-04-12T23:26:01.766Z,72.55
2018-04-12T23:28:29.315Z,72.66
2018-04-12T23:30:57.580Z,72.82
2018-04-12T23:33:25.131Z,72.82
2018-04-12T23:35:52.659Z,72.87
2018-04-12T23:38:20.216Z,72.97
2018-04-12T23:40:47.877Z,73.14
2018-04-12T23:43:15.887Z,73.23
2018-04-12T23:45:44.517Z,73.27
2018-04-12T23:48:12.868Z,73.33
2018-04-12T23:50:40.410Z,73.34
2018-04-12T23:53:07.923Z,73.42
2018-04-12T23:55:35.448Z,73.48
2018-04-12T23:58:03.044Z,73.48
